Terminal Aerodrome Forecast
Issued by NWS

Home | Current Version | Previous Version | Text Only | Print | Product List | Glossary On
Versions: 1 2 3 4 5 6 7 8 9 10 11 12 13 14
000
FTUS42 KTBW 280522
TAFRSW
TAF
KRSW 280522Z 2806/2906 VRB03KT P6SM FEW030 BKN250
     FM281200 08005KT P6SM VCTS SCT035CB
     FM281800 00000KT P6SM VCTS SCT040CB BKN200
     FM290300 08005KT P6SM SCT040 BKN200=

USA.gov is the U.S. government's official web portal to all federal, state and local government web resources and services.